Overview Statistics Trail Chart Weather Telemetry Raw packets
 

This is the latest recevied weather packets stored in our database for station/object DL0BB-10. If no packets are shown the sender has not sent any weather packets the latest 10 day(s).

<< 8 9 10 11 12 13 14 >>
Time Temp. Humidity Pressure Rain* Wind** Luminosity Snow
1788495294 25.56° C 38% 1020.1 hPa - - - -
1788494394 25° C 39% 1020.2 hPa - - - -
1788493494 25.56° C 39% 1020.3 hPa - - - -
1788492594 26.11° C 38% 1020.2 hPa - - - -
1788491693 25.56° C 39% 1020.3 hPa - - - -
1788490792 25.56° C 39% 1020.5 hPa - - - -
1788489897 25.56° C 39% 1020.7 hPa - - - -
1788488997 26.11° C 37% 1020.7 hPa - - - -
1788488096 25.56° C 40% 1021 hPa - - - -
1788487196 25.56° C 39% 1021.1 hPa - - - -
1788486296 26.11° C 38% 1021 hPa - - - -
1788485396 26.11° C 38% 1021 hPa - - - -
1788484496 25.56° C 40% 1021.1 hPa - - - -
1788483596 25.56° C 39% 1020.9 hPa - - - -
1788482696 26.11° C 38% 1021.1 hPa - - - -
1788481795 26.11° C 39% 1021.3 hPa - - - -
1788480895 25.56° C 39% 1021.3 hPa - - - -
1788479995 26.11° C 39% 1021.5 hPa - - - -
1788479095 26.67° C 37% 1021.7 hPa - - - -
1788478195 26.11° C 39% 1021.7 hPa - - - -
1788477295 25.56° C 39% 1021.8 hPa - - - -
1788476395 26.11° C 38% 1021.7 hPa - - - -
1788475495 26.67° C 37% 1021.8 hPa - - - -
1788474593 25.56° C 39% 1021.9 hPa - - - -
1788473693 26.11° C 39% 1022 hPa - - - -

* Rain since midnight (hover to see other rain measurements)
** Current wind speed in m/s (hover to see current wind gust speed)